createdAt,value
2022-12-11T00:02:22.260Z,36.20
2022-12-11T00:04:49.891Z,34.60
2022-12-11T00:07:17.500Z,36.33
2022-12-11T00:09:45.140Z,33.58
2022-12-11T00:12:12.716Z,32.72
2022-12-11T00:14:40.314Z,36.58
2022-12-11T00:17:07.954Z,35.50
2022-12-11T00:19:36.957Z,35.05
2022-12-11T00:22:04.606Z,35.88
2022-12-11T00:24:32.170Z,35.95
2022-12-11T00:26:59.756Z,36.70
2022-12-11T00:29:27.401Z,36.65
2022-12-11T00:31:55.071Z,36.90
2022-12-11T00:34:22.708Z,33.67
2022-12-11T00:36:51.692Z,35.22
2022-12-11T00:39:19.423Z,36.58
2022-12-11T00:41:47.006Z,35.65
2022-12-11T00:44:14.613Z,33.45
2022-12-11T00:46:42.250Z,36.28
2022-12-11T00:49:09.839Z,35.35
2022-12-11T00:51:37.502Z,36.05
2022-12-11T00:54:06.783Z,35.28
2022-12-11T00:56:34.381Z,37.45
2022-12-11T00:59:01.992Z,37.78
2022-12-11T01:01:29.790Z,35.90
2022-12-11T01:03:57.452Z,36.63
2022-12-11T01:06:26.521Z,36.55
2022-12-11T01:09:15.323Z,34.13
2022-12-11T01:11:43.498Z,34.60
2022-12-11T01:14:12.250Z,36.10
2022-12-11T01:16:39.978Z,34.43
2022-12-11T01:19:07.731Z,34.90
2022-12-11T01:21:35.363Z,34.30
2022-12-11T01:24:02.986Z,34.13
2022-12-11T01:26:30.731Z,31.50
2022-12-11T01:29:00.111Z,35.67
2022-12-11T01:31:27.726Z,36.60
2022-12-11T01:33:55.468Z,32.33
2022-12-11T01:36:24.272Z,33.58
2022-12-11T01:38:53.518Z,34.43
2022-12-11T01:41:21.932Z,34.28
2022-12-11T01:44:03.486Z,32.97
2022-12-11T01:46:32.852Z,33.20
2022-12-11T01:49:00.877Z,31.48
2022-12-11T01:51:30.189Z,31.92
2022-12-11T01:54:00.256Z,33.00
2022-12-11T01:56:28.102Z,29.83
2022-12-11T01:59:00.762Z,32.63
2022-12-11T02:01:33.565Z,29.05
2022-12-11T02:04:01.566Z,28.70
2022-12-11T02:06:32.170Z,27.00
2022-12-11T02:08:59.873Z,29.95
2022-12-11T02:11:31.530Z,29.15
2022-12-11T02:14:06.252Z,29.42
2022-12-11T02:16:39.568Z,30.38
2022-12-11T02:19:19.701Z,30.60
2022-12-11T02:21:51.011Z,31.63
2022-12-11T02:24:30.214Z,31.60
2022-12-11T02:27:12.109Z,29.48
2022-12-11T02:29:47.262Z,44.55
2022-12-11T02:32:17.640Z,46.90
2022-12-11T02:34:49.304Z,46.03
2022-12-11T02:37:20.433Z,46.65
2022-12-11T02:39:48.831Z,44.88
2022-12-11T02:42:17.265Z,46.00
2022-12-11T02:44:46.527Z,44.28
2022-12-11T02:47:16.287Z,44.88
2022-12-11T02:49:46.195Z,45.03
2022-12-11T02:52:15.803Z,44.43
2022-12-11T02:54:44.869Z,45.63
2022-12-11T02:57:15.917Z,44.42
2022-12-11T02:59:47.043Z,45.70
2022-12-11T03:02:15.643Z,45.87
2022-12-11T03:04:44.332Z,46.53
2022-12-11T03:07:15.631Z,46.72
2022-12-11T03:09:44.656Z,46.95
2022-12-11T03:12:14.056Z,45.70
2022-12-11T03:14:42.746Z,45.35
2022-12-11T03:17:16.507Z,46.30
2022-12-11T03:19:49.572Z,44.13
2022-12-11T03:22:19.801Z,44.60
2022-12-11T03:24:50.128Z,39.65
2022-12-11T03:27:21.908Z,39.53
2022-12-11T03:29:53.915Z,35.55
2022-12-11T03:32:25.403Z,36.65
2022-12-11T03:34:58.407Z,38.40
2022-12-11T03:37:27.243Z,38.53
2022-12-11T03:39:59.037Z,38.72
2022-12-11T03:42:27.899Z,38.28
2022-12-11T03:44:56.543Z,36.85
2022-12-11T03:47:27.009Z,36.20
2022-12-11T03:49:55.024Z,35.97
2022-12-11T03:52:23.149Z,36.13
2022-12-11T03:54:52.411Z,36.25
2022-12-11T03:57:23.164Z,34.90
2022-12-11T03:59:50.980Z,35.13
2022-12-11T04:02:18.618Z,36.63
2022-12-11T04:04:47.586Z,36.75
2022-12-11T04:07:15.224Z,35.60
2022-12-11T04:09:42.850Z,35.85
2022-12-11T04:12:10.502Z,33.83
2022-12-11T04:14:55.612Z,34.60
2022-12-11T04:17:37.155Z,34.90
2022-12-11T04:20:24.949Z,35.40
2022-12-11T04:23:24.965Z,33.63
2022-12-11T04:25:52.554Z,34.65
2022-12-11T04:28:20.166Z,35.45
2022-12-11T04:30:49.864Z,34.80
2022-12-11T04:33:17.699Z,33.95
2022-12-11T04:35:46.730Z,34.30
2022-12-11T04:38:14.331Z,35.20
2022-12-11T04:40:41.950Z,35.25
2022-12-11T04:43:09.586Z,34.65
2022-12-11T04:45:37.243Z,34.72
2022-12-11T04:48:05.203Z,34.73
2022-12-11T04:50:32.852Z,33.97
2022-12-11T04:53:01.896Z,34.38
2022-12-11T04:55:29.629Z,34.50
2022-12-11T04:57:57.281Z,34.95
2022-12-11T05:00:24.905Z,36.50
2022-12-11T05:02:52.522Z,35.85
2022-12-11T05:05:20.392Z,37.25
2022-12-11T05:07:48.100Z,38.65
2022-12-11T05:10:17.055Z,38.50
2022-12-11T05:12:44.630Z,39.53
2022-12-11T05:15:12.427Z,39.05
2022-12-11T05:17:40.150Z,38.85
2022-12-11T05:20:09.503Z,39.13
2022-12-11T05:22:37.150Z,39.28
2022-12-11T05:25:05.391Z,37.65
2022-12-11T05:27:34.587Z,36.85
2022-12-11T05:30:02.229Z,36.42
2022-12-11T05:32:30.137Z,36.03
2022-12-11T05:34:57.758Z,35.63
2022-12-11T05:37:25.396Z,36.28
2022-12-11T05:39:53.086Z,34.88
2022-12-11T05:42:24.079Z,33.63
2022-12-11T05:44:57.466Z,32.95
2022-12-11T05:47:25.574Z,32.97
2022-12-11T05:49:53.266Z,33.57
2022-12-11T05:52:21.670Z,31.92
2022-12-11T05:54:49.805Z,31.90
2022-12-11T05:57:17.493Z,32.53
2022-12-11T05:59:45.266Z,32.40
2022-12-11T06:02:14.371Z,32.70
2022-12-11T06:04:42.103Z,33.17
2022-12-11T06:07:09.750Z,33.13
2022-12-11T06:09:37.383Z,33.80
2022-12-11T06:12:05.322Z,33.08
2022-12-11T06:14:32.952Z,32.88
2022-12-11T06:17:01.509Z,32.97
2022-12-11T06:19:36.391Z,32.70
2022-12-11T06:22:04.602Z,33.00
2022-12-11T06:24:32.248Z,32.63
2022-12-11T06:26:59.889Z,33.72
2022-12-11T06:29:27.551Z,33.30
2022-12-11T06:31:55.238Z,32.75
2022-12-11T06:34:23.291Z,25.55
2022-12-11T06:36:52.308Z,24.33
2022-12-11T06:39:20.278Z,23.05
2022-12-11T06:41:48.270Z,25.08
2022-12-11T06:46:43.388Z,23.10
2022-12-11T07:06:31.168Z,21.10
2022-12-11T07:08:58.810Z,23.98
2022-12-11T07:38:35.516Z,22.17
2022-12-11T07:41:03.462Z,24.50
2022-12-11T07:43:31.080Z,35.92
2022-12-11T07:46:03.602Z,35.33
2022-12-11T07:48:31.378Z,34.55
2022-12-11T07:51:09.326Z,33.10
2022-12-11T07:53:37.103Z,31.98
2022-12-11T07:56:04.871Z,31.83
2022-12-11T07:58:32.492Z,30.65
2022-12-11T08:01:00.211Z,29.60
2022-12-11T08:03:29.275Z,29.35
2022-12-11T08:05:56.874Z,28.02
2022-12-11T08:08:24.533Z,27.30
2022-12-11T08:10:52.179Z,28.02
2022-12-11T08:13:19.792Z,26.43
2022-12-11T08:15:47.446Z,25.35
2022-12-11T08:18:15.213Z,25.83
2022-12-11T08:20:44.215Z,26.30
2022-12-11T08:23:11.819Z,26.42
2022-12-11T08:25:39.540Z,25.50
2022-12-11T08:28:07.171Z,25.88
2022-12-11T08:30:34.930Z,27.05
2022-12-11T08:33:02.583Z,25.73
2022-12-11T08:35:30.255Z,26.55
2022-12-11T08:37:59.283Z,25.08
2022-12-11T08:40:26.959Z,26.20
2022-12-11T08:42:54.547Z,26.80
2022-12-11T08:45:22.177Z,26.88
2022-12-11T08:47:49.783Z,25.92
2022-12-11T08:50:17.400Z,27.10
2022-12-11T08:52:45.047Z,27.43
2022-12-11T08:55:14.167Z,27.17
2022-12-11T08:57:41.950Z,26.35
2022-12-11T09:00:12.525Z,26.63
2022-12-11T09:02:40.400Z,27.65
2022-12-11T09:05:10.145Z,27.63
2022-12-11T09:07:39.077Z,27.30
2022-12-11T09:10:08.074Z,26.23
2022-12-11T09:12:37.825Z,27.00
2022-12-11T09:15:06.308Z,26.70
2022-12-11T09:17:35.288Z,25.42
2022-12-11T09:20:02.935Z,24.70
2022-12-11T09:22:30.745Z,22.60
2022-12-11T09:24:58.406Z,22.48
2022-12-11T09:27:26.064Z,22.60
2022-12-11T09:29:55.021Z,21.98
2022-12-11T09:32:22.606Z,21.20
2022-12-11T09:34:51.799Z,20.90
2022-12-11T09:37:19.483Z,21.23
2022-12-11T09:39:47.209Z,20.90
2022-12-11T09:42:17.435Z,20.30
2022-12-11T09:44:47.969Z,20.60
2022-12-11T09:47:22.025Z,20.08
2022-12-11T09:49:52.653Z,19.33
2022-12-11T09:52:24.065Z,18.55
2022-12-11T09:54:55.208Z,19.30
2022-12-11T09:57:37.050Z,19.15
2022-12-11T10:03:20.343Z,15.98
2022-12-11T10:05:51.772Z,13.27
2022-12-11T10:08:23.925Z,15.15
2022-12-11T10:10:56.257Z,14.55
2022-12-11T10:13:31.327Z,14.05
2022-12-11T10:16:01.138Z,17.75
2022-12-11T10:18:30.900Z,18.67
2022-12-11T10:20:58.700Z,18.40
2022-12-11T10:23:35.386Z,18.27
2022-12-11T10:26:05.690Z,18.40
2022-12-11T10:28:33.381Z,18.53
2022-12-11T10:31:07.767Z,15.27
2022-12-11T10:33:42.937Z,15.00
2022-12-11T10:36:11.449Z,14.82
2022-12-11T10:38:41.935Z,14.40
2022-12-11T10:41:13.659Z,12.85
2022-12-11T10:43:43.188Z,13.98
2022-12-11T10:46:16.945Z,14.25
2022-12-11T10:48:50.475Z,13.45
2022-12-11T10:51:18.634Z,14.65
2022-12-11T10:53:51.187Z,13.10
2022-12-11T10:56:26.307Z,14.05
2022-12-11T10:58:53.985Z,18.95
2022-12-11T11:01:23.948Z,17.55
2022-12-11T11:03:58.849Z,17.30
2022-12-11T11:06:27.581Z,14.05
2022-12-11T11:08:57.405Z,13.50
2022-12-11T11:11:33.999Z,17.35
2022-12-11T11:14:07.144Z,17.10
2022-12-11T11:16:37.875Z,14.07
2022-12-11T11:19:07.509Z,13.95
2022-12-11T11:21:36.103Z,13.40
2022-12-11T11:24:04.858Z,13.07
2022-12-11T11:26:56.709Z,16.38
2022-12-11T11:29:27.052Z,17.42
2022-12-11T11:31:54.728Z,18.50
2022-12-11T11:34:26.001Z,15.55
2022-12-11T11:36:58.776Z,15.05
2022-12-11T11:39:32.156Z,14.35
2022-12-11T11:42:03.792Z,13.43
2022-12-11T11:44:33.711Z,17.73
2022-12-11T11:47:04.746Z,17.73
2022-12-11T11:49:45.810Z,16.83
2022-12-11T11:52:17.526Z,13.77
2022-12-11T11:54:51.322Z,12.70
2022-12-11T11:57:23.683Z,12.10
2022-12-11T11:59:54.979Z,11.15
2022-12-11T12:02:22.684Z,12.52
2022-12-11T12:04:51.941Z,11.48
2022-12-11T12:07:28.559Z,11.48
2022-12-11T12:10:02.245Z,11.15
2022-12-11T12:12:37.755Z,11.63
2022-12-11T12:15:18.325Z,12.35
2022-12-11T12:17:55.478Z,12.13
2022-12-11T12:20:32.194Z,10.57
2022-12-11T12:23:08.608Z,10.20
2022-12-11T12:25:39.935Z,10.32
2022-12-11T12:40:47.725Z,8.40
2022-12-11T12:43:33.918Z,10.48
2022-12-11T12:46:11.183Z,10.23
2022-12-11T13:11:06.328Z,10.20
2022-12-11T13:13:37.534Z,10.82
2022-12-11T13:16:10.542Z,10.82
2022-12-11T13:18:40.045Z,11.25
2022-12-11T13:21:27.614Z,11.98
2022-12-11T13:23:56.922Z,12.15
2022-12-11T13:26:32.161Z,12.52
2022-12-11T13:29:00.068Z,13.07
2022-12-11T13:31:33.270Z,12.02
2022-12-11T13:34:10.074Z,14.07
2022-12-11T13:36:39.466Z,13.02
2022-12-11T13:39:17.929Z,13.95
2022-12-11T13:41:48.176Z,14.40
2022-12-11T13:44:19.732Z,14.30
2022-12-11T13:46:47.411Z,14.27
2022-12-11T13:49:23.247Z,14.27
2022-12-11T13:51:57.750Z,15.18
2022-12-11T13:54:27.427Z,14.65
2022-12-11T13:59:26.848Z,15.73
2022-12-11T14:01:56.840Z,14.85
2022-12-11T14:04:25.034Z,14.52
2022-12-11T14:06:52.670Z,15.88
2022-12-11T14:09:23.172Z,16.17
2022-12-11T14:11:56.794Z,14.77
2022-12-11T14:14:28.691Z,15.95
2022-12-11T14:16:56.638Z,14.57
2022-12-11T14:19:25.976Z,15.85
2022-12-11T14:21:58.025Z,16.23
2022-12-11T14:24:25.851Z,15.95
2022-12-11T14:26:55.626Z,15.30
2022-12-11T14:29:28.251Z,15.55
2022-12-11T14:31:56.208Z,15.65
2022-12-11T14:34:26.073Z,17.45
2022-12-11T14:36:54.747Z,17.15
2022-12-11T14:39:25.842Z,17.33
2022-12-11T14:41:59.201Z,17.60
2022-12-11T14:44:29.386Z,15.80
2022-12-11T14:46:59.839Z,18.13
2022-12-11T14:49:40.230Z,17.15
2022-12-11T14:52:14.971Z,18.15
2022-12-11T14:54:45.495Z,19.67
2022-12-11T14:57:19.981Z,19.10
2022-12-11T14:59:49.646Z,17.15
2022-12-11T15:05:08.548Z,17.88
2022-12-11T15:07:36.175Z,20.20
2022-12-11T15:10:04.573Z,18.92
2022-12-11T15:12:33.927Z,19.13
2022-12-11T15:15:04.831Z,19.38
2022-12-11T15:17:34.531Z,17.08
2022-12-11T15:22:32.690Z,18.77
2022-12-11T15:25:00.882Z,21.20
2022-12-11T15:27:33.969Z,22.75
2022-12-11T15:30:01.637Z,21.02
2022-12-11T15:32:31.838Z,21.05
2022-12-11T15:35:00.932Z,20.10
2022-12-11T15:37:30.148Z,20.23
2022-12-11T15:39:59.401Z,19.77
2022-12-11T15:42:28.641Z,18.13
2022-12-11T15:44:57.675Z,18.13
2022-12-11T15:47:27.681Z,20.38
2022-12-11T15:49:56.540Z,20.33
2022-12-11T15:52:24.190Z,17.77
2022-12-11T15:54:51.798Z,18.85
2022-12-11T15:57:21.872Z,18.60
2022-12-11T15:59:50.340Z,18.33
2022-12-11T16:02:19.614Z,19.73
2022-12-11T16:04:47.228Z,18.98
2022-12-11T16:07:18.197Z,19.52
2022-12-11T16:09:46.233Z,18.52
2022-12-11T16:12:14.361Z,18.77
2022-12-11T16:14:42.120Z,20.23
2022-12-11T16:17:10.504Z,20.27
2022-12-11T16:19:40.003Z,19.00
2022-12-11T16:22:08.757Z,18.65
2022-12-11T16:24:36.499Z,20.03
2022-12-11T16:27:05.169Z,19.88
2022-12-11T16:29:35.213Z,17.20
2022-12-11T16:32:02.819Z,20.63
2022-12-11T16:34:30.615Z,20.95
2022-12-11T16:36:59.971Z,20.40
2022-12-11T16:39:28.156Z,20.92
2022-12-11T16:41:55.803Z,22.77
2022-12-11T16:44:24.832Z,21.38
2022-12-11T16:46:53.586Z,21.45
2022-12-11T16:49:21.763Z,22.47
2022-12-11T16:51:49.768Z,23.20
2022-12-11T16:54:19.218Z,23.27
2022-12-11T16:56:46.877Z,24.63
2022-12-11T16:59:14.527Z,23.75
2022-12-11T17:01:42.229Z,25.65
2022-12-11T17:04:11.174Z,28.55
2022-12-11T17:06:38.854Z,27.23
2022-12-11T17:09:06.984Z,24.08
2022-12-11T17:11:36.028Z,23.58
2022-12-11T17:14:03.691Z,24.42
2022-12-11T17:16:31.594Z,23.75
2022-12-11T17:18:59.504Z,26.40
2022-12-11T17:21:27.117Z,23.73
2022-12-11T17:23:54.789Z,22.98
2022-12-11T17:26:23.760Z,24.25
2022-12-11T17:28:52.722Z,25.80
2022-12-11T17:31:20.502Z,23.83
2022-12-11T17:33:49.519Z,24.55
2022-12-11T17:36:19.969Z,22.45
2022-12-11T17:38:47.879Z,27.00
2022-12-11T17:41:20.359Z,27.40
2022-12-11T17:43:48.859Z,24.67
2022-12-11T17:46:18.230Z,24.85
2022-12-11T17:48:45.985Z,23.38
2022-12-11T17:51:20.925Z,23.10
2022-12-11T17:53:48.771Z,21.50
2022-12-11T17:56:16.484Z,24.48
2022-12-11T17:58:44.283Z,24.60
2022-12-11T18:01:12.324Z,24.50
2022-12-11T18:03:41.841Z,25.20
2022-12-11T18:06:12.009Z,25.08
2022-12-11T18:08:40.230Z,23.75
2022-12-11T18:11:09.180Z,22.98
2022-12-11T18:13:37.223Z,22.25
2022-12-11T18:16:06.850Z,20.73
2022-12-11T18:21:03.884Z,21.33
2022-12-11T18:23:31.598Z,21.35
2022-12-11T18:25:59.220Z,21.00
2022-12-11T18:28:26.839Z,20.52
2022-12-11T18:30:54.623Z,22.27
2022-12-11T18:33:22.278Z,20.23
2022-12-11T18:35:50.506Z,20.80
2022-12-11T18:38:19.555Z,22.42
2022-12-11T18:40:47.189Z,20.02
2022-12-11T18:43:14.834Z,20.58
2022-12-11T18:45:42.660Z,21.10
2022-12-11T18:48:10.638Z,20.17
2022-12-11T18:50:38.439Z,19.60
2022-12-11T18:53:06.135Z,20.27
2022-12-11T18:55:35.127Z,19.77
2022-12-11T18:58:03.158Z,19.60
2022-12-11T19:00:30.770Z,18.63
2022-12-11T19:02:58.558Z,17.52
2022-12-11T19:05:26.176Z,17.77
2022-12-11T19:07:53.808Z,17.60
2022-12-11T19:10:21.407Z,17.77
2022-12-11T19:12:50.456Z,19.52
2022-12-11T19:15:23.394Z,17.85
2022-12-11T19:17:51.543Z,18.75
2022-12-11T19:20:47.487Z,17.65
2022-12-11T19:23:07.584Z,18.67
2022-12-11T19:25:35.273Z,18.90
2022-12-11T19:28:04.308Z,18.27
2022-12-11T19:30:32.011Z,17.20
2022-12-11T19:32:59.664Z,18.30
2022-12-11T19:35:27.482Z,18.20
2022-12-11T19:37:56.527Z,18.83
2022-12-11T19:40:26.213Z,18.50
2022-12-11T19:45:22.672Z,17.38
2022-12-11T19:47:50.365Z,19.40
2022-12-11T19:50:18.129Z,18.75
2022-12-11T19:52:46.591Z,19.35
2022-12-11T19:55:15.101Z,21.98
2022-12-11T19:57:42.897Z,21.73
2022-12-11T20:00:11.518Z,22.02
2022-12-11T20:02:40.535Z,22.30
2022-12-11T20:05:08.868Z,23.40
2022-12-11T20:07:36.929Z,24.20
2022-12-11T20:10:04.850Z,24.45
2022-12-11T20:12:32.668Z,22.00
2022-12-11T20:15:00.327Z,24.80
2022-12-11T20:17:28.598Z,23.35
2022-12-11T20:19:57.660Z,22.15
2022-12-11T20:22:25.340Z,22.48
2022-12-11T20:24:53.025Z,22.90
2022-12-11T20:27:20.698Z,23.00
2022-12-11T20:29:48.388Z,23.33
2022-12-11T20:32:16.156Z,23.40
2022-12-11T20:34:43.871Z,24.17
2022-12-11T20:37:13.157Z,23.33
2022-12-11T20:39:40.776Z,22.48
2022-12-11T20:42:10.494Z,22.65
2022-12-11T20:47:06.714Z,22.48
2022-12-11T20:49:34.534Z,25.70
2022-12-11T20:52:02.195Z,24.90
2022-12-11T20:54:31.212Z,24.02
2022-12-11T20:56:58.886Z,24.20
2022-12-11T20:59:27.066Z,23.83
2022-12-11T21:01:54.757Z,22.60
2022-12-11T21:04:22.476Z,24.50
2022-12-11T21:06:55.250Z,22.33
2022-12-11T21:09:24.867Z,23.88
2022-12-11T21:14:21.410Z,23.07
2022-12-11T21:16:49.066Z,22.00
2022-12-11T21:19:17.324Z,21.92
2022-12-11T21:21:46.240Z,22.83
2022-12-11T21:24:17.199Z,21.95
2022-12-11T21:26:44.915Z,22.73
2022-12-11T21:29:14.064Z,22.40
2022-12-11T21:31:41.790Z,23.10
2022-12-11T21:34:09.522Z,21.88
2022-12-11T21:36:37.106Z,19.63
2022-12-11T21:39:05.400Z,22.15
2022-12-11T21:41:33.160Z,21.85
2022-12-11T21:46:49.907Z,21.35
2022-12-11T21:49:17.538Z,21.77
2022-12-11T21:51:47.492Z,20.73
2022-12-11T21:54:17.748Z,21.70
2022-12-11T21:56:45.810Z,20.35
2022-12-11T21:59:13.523Z,20.15
2022-12-11T22:01:43.878Z,22.23
2022-12-11T22:04:13.606Z,21.83
2022-12-11T22:09:09.638Z,21.17
2022-12-11T22:11:37.584Z,21.58
2022-12-11T22:14:06.777Z,20.50
2022-12-11T22:16:34.947Z,20.35
2022-12-11T22:19:02.607Z,22.40
2022-12-11T22:21:31.635Z,20.67
2022-12-11T22:23:59.757Z,21.30
2022-12-11T22:26:28.069Z,21.02
2022-12-11T22:28:56.726Z,21.23
2022-12-11T22:31:26.692Z,22.13
2022-12-11T22:33:55.049Z,20.27
2022-12-11T22:36:23.452Z,19.08
2022-12-11T22:38:52.791Z,18.73
2022-12-11T22:41:25.073Z,17.95
2022-12-11T22:43:53.102Z,19.25
2022-12-11T22:46:22.686Z,19.73
2022-12-11T22:48:50.537Z,18.38
2022-12-11T22:51:18.433Z,19.10
2022-12-11T22:53:46.187Z,20.85
2022-12-11T22:56:15.588Z,19.35
2022-12-11T22:58:43.506Z,19.33
2022-12-11T23:01:13.580Z,17.92
2022-12-11T23:03:41.254Z,18.27
2022-12-11T23:06:11.160Z,17.50
2022-12-11T23:08:39.525Z,17.60
2022-12-11T23:11:11.685Z,17.52
2022-12-11T23:13:40.805Z,17.48
2022-12-11T23:16:08.462Z,17.45
2022-12-11T23:18:36.439Z,16.83
2022-12-11T23:21:04.955Z,17.45
2022-12-11T23:23:32.899Z,17.77
2022-12-11T23:26:00.619Z,19.95
2022-12-11T23:28:28.232Z,17.08
2022-12-11T23:30:57.232Z,17.52
2022-12-11T23:33:25.080Z,17.60
2022-12-11T23:35:52.738Z,18.65
2022-12-11T23:38:20.391Z,17.30
2022-12-11T23:40:48.036Z,20.52
2022-12-11T23:43:15.669Z,18.75
2022-12-11T23:45:44.799Z,17.85
2022-12-11T23:48:14.220Z,19.88
2022-12-11T23:50:42.444Z,18.20
2022-12-11T23:53:10.435Z,18.38
2022-12-11T23:55:39.440Z,19.27
2022-12-11T23:58:07.431Z,19.20
